sensor_id;sensor_type;location;lat;lon;timestamp;pressure;altitude;pressure_sealevel;temperature;humidity
30875;BME280;17581;43.222;27.924;2023-08-31T00:02:17;99836.63;;;27.03;91.90
30875;BME280;17581;43.222;27.924;2023-08-31T00:04:43;99829.66;;;27.00;92.36
30875;BME280;17581;43.222;27.924;2023-08-31T00:07:09;99826.31;;;26.98;92.43
30875;BME280;17581;43.222;27.924;2023-08-31T00:09:34;99823.22;;;26.95;92.91
30875;BME280;17581;43.222;27.924;2023-08-31T00:12:03;99830.09;;;26.92;92.97
30875;BME280;17581;43.222;27.924;2023-08-31T00:14:29;99824.50;;;26.87;93.90
30875;BME280;17581;43.222;27.924;2023-08-31T00:16:54;99808.28;;;26.79;94.46
30875;BME280;17581;43.222;27.924;2023-08-31T00:19:23;99821.97;;;26.86;95.27
30875;BME280;17581;43.222;27.924;2023-08-31T00:21:48;99837.34;;;26.82;95.14
30875;BME280;17581;43.222;27.924;2023-08-31T00:24:14;99824.84;;;26.79;95.87
30875;BME280;17581;43.222;27.924;2023-08-31T00:26:39;99825.84;;;26.73;96.55
30875;BME280;17581;43.222;27.924;2023-08-31T00:29:09;99840.25;;;26.75;96.95
30875;BME280;17581;43.222;27.924;2023-08-31T00:31:36;99827.53;;;26.74;96.93
30875;BME280;17581;43.222;27.924;2023-08-31T00:34:02;99837.59;;;26.80;96.62
30875;BME280;17581;43.222;27.924;2023-08-31T00:36:32;99830.03;;;26.76;96.41
30875;BME280;17581;43.222;27.924;2023-08-31T00:39:02;99832.22;;;26.74;97.42
30875;BME280;17581;43.222;27.924;2023-08-31T00:41:27;99819.19;;;26.69;97.16
30875;BME280;17581;43.222;27.924;2023-08-31T00:43:53;99834.72;;;26.75;97.21
30875;BME280;17581;43.222;27.924;2023-08-31T00:46:18;99834.47;;;26.77;97.37
30875;BME280;17581;43.222;27.924;2023-08-31T00:48:44;99843.13;;;26.80;96.91
30875;BME280;17581;43.222;27.924;2023-08-31T00:51:09;99829.44;;;26.74;96.75
30875;BME280;17581;43.222;27.924;2023-08-31T00:53:36;99823.59;;;26.70;96.84
30875;BME280;17581;43.222;27.924;2023-08-31T00:56:02;99840.56;;;26.79;96.55
30875;BME280;17581;43.222;27.924;2023-08-31T00:58:28;99844.81;;;26.81;96.25
30875;BME280;17581;43.222;27.924;2023-08-31T01:10:22;99866.66;;;26.71;96.88
30875;BME280;17581;43.222;27.924;2023-08-31T01:13:21;99862.22;;;26.70;97.26
30875;BME280;17581;43.222;27.924;2023-08-31T01:15:52;99868.50;;;26.66;97.38
30875;BME280;17581;43.222;27.924;2023-08-31T01:18:21;99853.59;;;26.67;97.42
30875;BME280;17581;43.222;27.924;2023-08-31T01:23:19;99870.34;;;26.77;95.99
30875;BME280;17581;43.222;27.924;2023-08-31T01:25:45;99871.69;;;26.74;96.21
30875;BME280;17581;43.222;27.924;2023-08-31T01:28:13;99874.06;;;26.82;95.69
30875;BME280;17581;43.222;27.924;2023-08-31T01:30:39;99868.16;;;26.79;95.93
30875;BME280;17581;43.222;27.924;2023-08-31T01:33:05;99869.41;;;26.71;96.00
30875;BME280;17581;43.222;27.924;2023-08-31T01:35:35;99874.84;;;26.66;96.44
30875;BME280;17581;43.222;27.924;2023-08-31T01:38:04;99875.16;;;26.70;97.04
30875;BME280;17581;43.222;27.924;2023-08-31T01:43:15;99886.97;;;26.65;95.36
30875;BME280;17581;43.222;27.924;2023-08-31T01:45:42;99898.72;;;26.61;95.59
30875;BME280;17581;43.222;27.924;2023-08-31T01:48:09;99895.72;;;26.62;95.64
30875;BME280;17581;43.222;27.924;2023-08-31T01:50:35;99888.44;;;26.56;95.54
30875;BME280;17581;43.222;27.924;2023-08-31T01:53:00;99894.38;;;26.48;96.21
30875;BME280;17581;43.222;27.924;2023-08-31T01:55:26;99900.13;;;26.46;96.73
30875;BME280;17581;43.222;27.924;2023-08-31T01:57:51;99875.22;;;26.30;96.79
30875;BME280;17581;43.222;27.924;2023-08-31T02:00:18;99888.72;;;26.43;96.77
30875;BME280;17581;43.222;27.924;2023-08-31T02:02:44;99863.38;;;26.29;96.88
30875;BME280;17581;43.222;27.924;2023-08-31T02:05:09;99892.91;;;26.45;96.59
30875;BME280;17581;43.222;27.924;2023-08-31T02:07:35;99896.03;;;26.49;95.65
30875;BME280;17581;43.222;27.924;2023-08-31T02:10:01;99879.63;;;26.42;94.86
30875;BME280;17581;43.222;27.924;2023-08-31T02:12:27;99872.59;;;26.35;95.31
30875;BME280;17581;43.222;27.924;2023-08-31T02:14:52;99897.00;;;26.43;95.54
30875;BME280;17581;43.222;27.924;2023-08-31T02:17:18;99895.34;;;26.42;95.89
30875;BME280;17581;43.222;27.924;2023-08-31T02:19:43;99876.91;;;26.31;95.70
30875;BME280;17581;43.222;27.924;2023-08-31T02:22:10;99887.44;;;26.34;95.42
30875;BME280;17581;43.222;27.924;2023-08-31T02:24:35;99895.97;;;26.32;95.55
30875;BME280;17581;43.222;27.924;2023-08-31T02:27:00;99875.03;;;26.20;94.81
30875;BME280;17581;43.222;27.924;2023-08-31T02:29:26;99885.22;;;26.19;95.16
30875;BME280;17581;43.222;27.924;2023-08-31T02:31:51;99867.59;;;26.09;95.62
30875;BME280;17581;43.222;27.924;2023-08-31T02:34:17;99882.34;;;26.14;95.92
30875;BME280;17581;43.222;27.924;2023-08-31T02:36:42;99903.78;;;26.24;95.41
30875;BME280;17581;43.222;27.924;2023-08-31T02:39:07;99898.16;;;26.19;95.67
30875;BME280;17581;43.222;27.924;2023-08-31T02:41:33;99892.06;;;26.17;95.82
30875;BME280;17581;43.222;27.924;2023-08-31T02:43:58;99907.78;;;26.16;96.08
30875;BME280;17581;43.222;27.924;2023-08-31T02:46:24;99909.47;;;26.17;96.20
30875;BME280;17581;43.222;27.924;2023-08-31T02:48:50;99879.09;;;26.06;96.25
30875;BME280;17581;43.222;27.924;2023-08-31T02:51:15;99898.16;;;26.19;96.20
30875;BME280;17581;43.222;27.924;2023-08-31T02:53:41;99904.75;;;26.18;96.33
30875;BME280;17581;43.222;27.924;2023-08-31T02:56:06;99899.59;;;26.10;96.08
30875;BME280;17581;43.222;27.924;2023-08-31T02:58:32;99906.09;;;26.15;96.14
30875;BME280;17581;43.222;27.924;2023-08-31T03:01:11;99912.66;;;26.14;96.59
30875;BME280;17581;43.222;27.924;2023-08-31T03:03:40;99893.53;;;25.96;96.53
30875;BME280;17581;43.222;27.924;2023-08-31T03:06:09;99914.63;;;26.02;96.70
30875;BME280;17581;43.222;27.924;2023-08-31T03:08:36;99911.50;;;25.98;96.52
30875;BME280;17581;43.222;27.924;2023-08-31T03:11:03;99904.56;;;25.84;96.82
30875;BME280;17581;43.222;27.924;2023-08-31T03:13:29;99907.31;;;25.84;97.85
30875;BME280;17581;43.222;27.924;2023-08-31T03:15:54;99904.31;;;25.86;98.19
30875;BME280;17581;43.222;27.924;2023-08-31T03:18:21;99916.19;;;25.86;97.93
30875;BME280;17581;43.222;27.924;2023-08-31T03:20:47;99913.44;;;25.86;98.02
30875;BME280;17581;43.222;27.924;2023-08-31T03:23:12;99907.31;;;25.84;98.03
30875;BME280;17581;43.222;27.924;2023-08-31T03:25:38;99910.31;;;25.83;98.32
30875;BME280;17581;43.222;27.924;2023-08-31T03:28:03;99918.59;;;25.83;98.00
30875;BME280;17581;43.222;27.924;2023-08-31T03:30:29;99913.56;;;25.80;97.70
30875;BME280;17581;43.222;27.924;2023-08-31T03:32:55;99919.44;;;25.83;97.20
30875;BME280;17581;43.222;27.924;2023-08-31T03:35:20;99928.97;;;25.81;96.89
30875;BME280;17581;43.222;27.924;2023-08-31T03:37:47;99934.84;;;25.84;96.65
30875;BME280;17581;43.222;27.924;2023-08-31T03:40:13;99931.50;;;25.82;96.61
30875;BME280;17581;43.222;27.924;2023-08-31T03:42:39;99913.06;;;25.83;96.16
30875;BME280;17581;43.222;27.924;2023-08-31T03:45:05;99918.94;;;25.86;95.59
30875;BME280;17581;43.222;27.924;2023-08-31T03:47:30;99924.94;;;25.83;94.47
30875;BME280;17581;43.222;27.924;2023-08-31T03:49:56;99930.44;;;25.83;93.69
30875;BME280;17581;43.222;27.924;2023-08-31T03:52:21;99932.59;;;25.81;92.74
30875;BME280;17581;43.222;27.924;2023-08-31T03:54:48;99933.06;;;25.78;92.33
30875;BME280;17581;43.222;27.924;2023-08-31T03:57:14;99941.94;;;25.80;92.00
30875;BME280;17581;43.222;27.924;2023-08-31T03:59:39;99929.25;;;25.79;91.42
30875;BME280;17581;43.222;27.924;2023-08-31T04:02:05;99909.03;;;25.62;91.39
30875;BME280;17581;43.222;27.924;2023-08-31T04:04:30;99937.41;;;25.74;90.67
30875;BME280;17581;43.222;27.924;2023-08-31T04:06:55;99940.75;;;25.76;90.60
30875;BME280;17581;43.222;27.924;2023-08-31T04:09:21;99953.09;;;25.74;90.72
30875;BME280;17581;43.222;27.924;2023-08-31T04:11:47;99957.28;;;25.76;90.98
30875;BME280;17581;43.222;27.924;2023-08-31T04:14:12;99948.41;;;25.74;90.98
30875;BME280;17581;43.222;27.924;2023-08-31T04:16:38;99959.66;;;25.84;89.99
30875;BME280;17581;43.222;27.924;2023-08-31T04:19:03;99980.72;;;25.90;89.57
30875;BME280;17581;43.222;27.924;2023-08-31T04:21:29;99977.28;;;25.83;89.08
30875;BME280;17581;43.222;27.924;2023-08-31T04:23:54;99990.59;;;25.86;88.15
30875;BME280;17581;43.222;27.924;2023-08-31T04:26:20;99987.09;;;25.79;87.66
30875;BME280;17581;43.222;27.924;2023-08-31T04:28:45;99994.28;;;25.80;87.13
30875;BME280;17581;43.222;27.924;2023-08-31T04:31:11;99995.38;;;25.79;86.39
30875;BME280;17581;43.222;27.924;2023-08-31T04:33:38;99999.06;;;25.85;86.67
30875;BME280;17581;43.222;27.924;2023-08-31T04:36:04;99996.56;;;25.83;86.01
30875;BME280;17581;43.222;27.924;2023-08-31T04:38:34;99997.41;;;25.84;85.18
30875;BME280;17581;43.222;27.924;2023-08-31T04:40:59;99996.47;;;25.90;84.97
30875;BME280;17581;43.222;27.924;2023-08-31T04:43:25;99998.47;;;25.94;84.71
30875;BME280;17581;43.222;27.924;2023-08-31T04:45:54;99998.00;;;25.97;84.43
30875;BME280;17581;43.222;27.924;2023-08-31T04:48:20;99997.63;;;26.06;83.80
30875;BME280;17581;43.222;27.924;2023-08-31T04:50:45;99986.25;;;26.14;83.14
30875;BME280;17581;43.222;27.924;2023-08-31T04:53:11;99983.50;;;26.14;82.63
30875;BME280;17581;43.222;27.924;2023-08-31T04:55:36;99988.38;;;26.12;82.16
30875;BME280;17581;43.222;27.924;2023-08-31T04:58:03;99988.06;;;26.20;81.28
30875;BME280;17581;43.222;27.924;2023-08-31T05:00:28;99994.75;;;26.24;81.64
30875;BME280;17581;43.222;27.924;2023-08-31T05:02:55;99999.78;;;26.27;80.87
30875;BME280;17581;43.222;27.924;2023-08-31T05:05:21;99993.78;;;26.30;79.79
30875;BME280;17581;43.222;27.924;2023-08-31T05:07:46;99995.47;;;26.31;79.65
30875;BME280;17581;43.222;27.924;2023-08-31T05:10:12;100001.56;;;26.33;79.01
30875;BME280;17581;43.222;27.924;2023-08-31T05:12:37;100003.16;;;26.29;78.93
30875;BME280;17581;43.222;27.924;2023-08-31T05:15:03;100016.06;;;26.40;78.34
30875;BME280;17581;43.222;27.924;2023-08-31T05:17:29;100021.72;;;26.33;77.82
30875;BME280;17581;43.222;27.924;2023-08-31T05:19:55;100008.28;;;26.37;78.16
30875;BME280;17581;43.222;27.924;2023-08-31T05:22:20;100009.00;;;26.44;77.98
30875;BME280;17581;43.222;27.924;2023-08-31T05:24:46;100006.16;;;26.39;77.07
30875;BME280;17581;43.222;27.924;2023-08-31T05:27:12;100020.84;;;26.56;77.01
30875;BME280;17581;43.222;27.924;2023-08-31T05:32:08;100008.25;;;26.60;75.66
30875;BME280;17581;43.222;27.924;2023-08-31T05:34:33;100011.09;;;26.65;75.78
30875;BME280;17581;43.222;27.924;2023-08-31T05:37:03;99982.63;;;26.48;75.96
30875;BME280;17581;43.222;27.924;2023-08-31T05:39:30;100017.66;;;26.76;76.01
30875;BME280;17581;43.222;27.924;2023-08-31T05:41:55;100018.41;;;26.83;75.64
30875;BME280;17581;43.222;27.924;2023-08-31T05:44:22;100014.06;;;26.87;75.44
30875;BME280;17581;43.222;27.924;2023-08-31T05:46:47;99995.47;;;26.82;75.23
30875;BME280;17581;43.222;27.924;2023-08-31T05:49:12;99995.34;;;26.89;74.88
30875;BME280;17581;43.222;27.924;2023-08-31T05:51:38;100026.00;;;27.04;74.71
30875;BME280;17581;43.222;27.924;2023-08-31T05:54:03;100026.75;;;26.99;75.05
30875;BME280;17581;43.222;27.924;2023-08-31T05:56:29;100006.03;;;26.85;75.00
30875;BME280;17581;43.222;27.924;2023-08-31T05:58:54;100021.88;;;27.07;74.87
30875;BME280;17581;43.222;27.924;2023-08-31T06:01:21;100015.78;;;27.04;75.13
30875;BME280;17581;43.222;27.924;2023-08-31T06:03:47;100023.84;;;27.06;74.03
30875;BME280;17581;43.222;27.924;2023-08-31T06:06:14;100016.13;;;27.08;73.87
30875;BME280;17581;43.222;27.924;2023-08-31T06:08:39;100033.72;;;27.19;74.01
30875;BME280;17581;43.222;27.924;2023-08-31T06:11:05;100037.59;;;27.18;74.13
30875;BME280;17581;43.222;27.924;2023-08-31T06:13:31;100019.13;;;27.07;74.13
30875;BME280;17581;43.222;27.924;2023-08-31T06:15:56;100047.16;;;27.27;74.33
30875;BME280;17581;43.222;27.924;2023-08-31T06:18:23;100051.06;;;27.31;74.37
30875;BME280;17581;43.222;27.924;2023-08-31T06:20:51;100053.31;;;27.34;73.84
30875;BME280;17581;43.222;27.924;2023-08-31T06:23:17;100064.00;;;27.42;74.06
30875;BME280;17581;43.222;27.924;2023-08-31T06:25:42;100074.59;;;27.45;73.43
30875;BME280;17581;43.222;27.924;2023-08-31T06:28:10;100073.59;;;27.51;73.50
30875;BME280;17581;43.222;27.924;2023-08-31T06:30:36;100077.53;;;27.55;73.49
30875;BME280;17581;43.222;27.924;2023-08-31T06:33:02;100070.81;;;27.51;72.96
30875;BME280;17581;43.222;27.924;2023-08-31T06:35:27;100080.97;;;27.62;72.70
30875;BME280;17581;43.222;27.924;2023-08-31T06:37:53;100079.38;;;27.66;73.05
30875;BME280;17581;43.222;27.924;2023-08-31T06:40:21;100075.84;;;27.71;73.21
30875;BME280;17581;43.222;27.924;2023-08-31T06:42:46;100080.72;;;27.80;73.16
30875;BME280;17581;43.222;27.924;2023-08-31T06:45:12;100073.69;;;27.89;73.15
30875;BME280;17581;43.222;27.924;2023-08-31T06:47:37;100071.88;;;27.95;73.08
30875;BME280;17581;43.222;27.924;2023-08-31T06:50:03;100072.69;;;27.95;73.05
30875;BME280;17581;43.222;27.924;2023-08-31T06:52:30;100073.22;;;28.09;72.91
30875;BME280;17581;43.222;27.924;2023-08-31T06:54:55;100054.63;;;28.04;72.83
30875;BME280;17581;43.222;27.924;2023-08-31T06:57:26;100082.09;;;28.28;72.67
30875;BME280;17581;43.222;27.924;2023-08-31T06:59:52;100084.41;;;28.36;72.52
30875;BME280;17581;43.222;27.924;2023-08-31T07:02:18;100083.91;;;28.39;71.58
30875;BME280;17581;43.222;27.924;2023-08-31T07:04:49;100085.09;;;28.43;71.52
30875;BME280;17581;43.222;27.924;2023-08-31T07:07:17;100085.16;;;28.48;71.09
30875;BME280;17581;43.222;27.924;2023-08-31T07:09:43;100083.88;;;28.55;70.84
30875;BME280;17581;43.222;27.924;2023-08-31T07:12:10;100077.00;;;28.58;70.48
30875;BME280;17581;43.222;27.924;2023-08-31T07:14:35;100083.53;;;28.69;69.63
30875;BME280;17581;43.222;27.924;2023-08-31T07:17:00;100086.19;;;28.80;69.24
30875;BME280;17581;43.222;27.924;2023-08-31T07:19:26;100090.72;;;28.86;68.23
30875;BME280;17581;43.222;27.924;2023-08-31T07:21:52;100082.97;;;28.88;67.58
30875;BME280;17581;43.222;27.924;2023-08-31T07:24:20;100088.56;;;28.93;67.17
30875;BME280;17581;43.222;27.924;2023-08-31T07:26:46;100101.13;;;29.01;66.19
30875;BME280;17581;43.222;27.924;2023-08-31T07:29:11;100081.19;;;28.99;66.11
30875;BME280;17581;43.222;27.924;2023-08-31T07:31:37;100091.66;;;29.18;65.90
30875;BME280;17581;43.222;27.924;2023-08-31T07:34:02;100105.13;;;29.32;65.33
30875;BME280;17581;43.222;27.924;2023-08-31T07:36:28;100102.72;;;29.40;64.24
30875;BME280;17581;43.222;27.924;2023-08-31T07:38:54;100094.75;;;29.44;63.79
30875;BME280;17581;43.222;27.924;2023-08-31T07:41:19;100099.78;;;29.52;63.38
30875;BME280;17581;43.222;27.924;2023-08-31T07:43:45;100100.41;;;29.54;63.12
30875;BME280;17581;43.222;27.924;2023-08-31T07:46:10;100094.16;;;29.68;62.70
30875;BME280;17581;43.222;27.924;2023-08-31T07:48:35;100093.34;;;29.73;61.82
30875;BME280;17581;43.222;27.924;2023-08-31T07:51:01;100093.09;;;29.75;61.79
30875;BME280;17581;43.222;27.924;2023-08-31T07:53:26;100100.78;;;29.94;61.33
30875;BME280;17581;43.222;27.924;2023-08-31T07:55:53;100092.03;;;30.07;60.81
30875;BME280;17581;43.222;27.924;2023-08-31T07:58:24;100071.50;;;30.08;60.42
30875;BME280;17581;43.222;27.924;2023-08-31T08:00:54;100084.38;;;30.24;59.26
30875;BME280;17581;43.222;27.924;2023-08-31T08:03:21;100073.31;;;30.30;59.32
30875;BME280;17581;43.222;27.924;2023-08-31T08:05:46;100086.19;;;30.41;58.69
30875;BME280;17581;43.222;27.924;2023-08-31T08:08:12;100085.13;;;30.47;58.16
30875;BME280;17581;43.222;27.924;2023-08-31T08:10:37;100095.75;;;30.60;57.93
30875;BME280;17581;43.222;27.924;2023-08-31T08:13:03;100086.38;;;30.71;57.21
30875;BME280;17581;43.222;27.924;2023-08-31T08:15:31;100080.81;;;30.71;56.49
30875;BME280;17581;43.222;27.924;2023-08-31T08:17:57;100085.28;;;30.77;56.17
30875;BME280;17581;43.222;27.924;2023-08-31T08:20:23;100071.38;;;30.67;55.63
30875;BME280;17581;43.222;27.924;2023-08-31T08:22:49;100084.19;;;30.83;55.13
30875;BME280;17581;43.222;27.924;2023-08-31T08:25:19;100041.38;;;30.69;55.17
30875;BME280;17581;43.222;27.924;2023-08-31T08:27:44;100073.22;;;31.03;54.54
30875;BME280;17581;43.222;27.924;2023-08-31T08:30:10;100065.44;;;31.10;54.09
30875;BME280;17581;43.222;27.924;2023-08-31T08:32:35;100078.25;;;31.16;53.70
30875;BME280;17581;43.222;27.924;2023-08-31T08:35:01;100073.81;;;31.20;53.55
30875;BME280;17581;43.222;27.924;2023-08-31T08:37:27;100073.06;;;31.40;52.91
30875;BME280;17581;43.222;27.924;2023-08-31T08:39:54;100062.81;;;31.51;52.24
30875;BME280;17581;43.222;27.924;2023-08-31T08:42:24;100077.84;;;31.75;51.54
30875;BME280;17581;43.222;27.924;2023-08-31T08:44:50;100067.28;;;31.67;50.64
30875;BME280;17581;43.222;27.924;2023-08-31T08:47:15;100074.53;;;31.68;50.50
30875;BME280;17581;43.222;27.924;2023-08-31T08:49:42;100077.31;;;31.83;50.14
30875;BME280;17581;43.222;27.924;2023-08-31T08:52:09;100071.44;;;31.90;49.07
30875;BME280;17581;43.222;27.924;2023-08-31T08:54:35;100076.19;;;31.89;48.91
30875;BME280;17581;43.222;27.924;2023-08-31T08:57:00;100078.13;;;31.99;48.64
30875;BME280;17581;43.222;27.924;2023-08-31T08:59:26;100082.34;;;32.06;47.95
30875;BME280;17581;43.222;27.924;2023-08-31T09:01:52;100075.09;;;32.05;47.90
30875;BME280;17581;43.222;27.924;2023-08-31T09:04:18;100061.19;;;32.05;47.06
30875;BME280;17581;43.222;27.924;2023-08-31T09:06:44;100081.75;;;32.29;46.30
30875;BME280;17581;43.222;27.924;2023-08-31T09:09:10;100074.75;;;32.42;46.53
30875;BME280;17581;43.222;27.924;2023-08-31T09:11:36;100070.59;;;32.50;45.42
30875;BME280;17581;43.222;27.924;2023-08-31T09:14:18;100077.81;;;32.46;44.55
30875;BME280;17581;43.222;27.924;2023-08-31T09:16:45;100085.34;;;32.50;43.38
30875;BME280;17581;43.222;27.924;2023-08-31T09:19:24;100082.56;;;32.50;43.00
30875;BME280;17581;43.222;27.924;2023-08-31T09:21:55;100070.03;;;32.53;43.09
30875;BME280;17581;43.222;27.924;2023-08-31T09:24:20;100084.22;;;32.71;43.11
30875;BME280;17581;43.222;27.924;2023-08-31T09:26:57;100085.56;;;32.79;42.82
30875;BME280;17581;43.222;27.924;2023-08-31T09:29:23;100076.06;;;32.85;42.88
30875;BME280;17581;43.222;27.924;2023-08-31T09:31:49;100083.56;;;32.95;43.07
30875;BME280;17581;43.222;27.924;2023-08-31T09:34:15;100086.56;;;33.03;42.21
30875;BME280;17581;43.222;27.924;2023-08-31T09:36:41;100084.34;;;33.10;41.56
30875;BME280;17581;43.222;27.924;2023-08-31T09:39:07;100067.63;;;33.05;41.65
30875;BME280;17581;43.222;27.924;2023-08-31T09:41:34;100087.41;;;33.14;41.31
30875;BME280;17581;43.222;27.924;2023-08-31T09:44:16;100084.00;;;33.22;41.01
30875;BME280;17581;43.222;27.924;2023-08-31T09:46:43;100088.75;;;33.21;37.80
30875;BME280;17581;43.222;27.924;2023-08-31T09:49:10;100083.16;;;33.21;37.83
30875;BME280;17581;43.222;27.924;2023-08-31T09:51:39;100073.13;;;33.25;36.91
30875;BME280;17581;43.222;27.924;2023-08-31T09:54:07;100092.53;;;33.40;36.63
30875;BME280;17581;43.222;27.924;2023-08-31T09:56:34;100071.34;;;33.39;36.97
30875;BME280;17581;43.222;27.924;2023-08-31T09:59:00;100087.41;;;33.58;37.11
30875;BME280;17581;43.222;27.924;2023-08-31T10:01:26;100091.88;;;33.64;36.76
30875;BME280;17581;43.222;27.924;2023-08-31T10:03:52;100072.94;;;33.61;36.35
30875;BME280;17581;43.222;27.924;2023-08-31T10:06:18;100093.75;;;33.73;34.78
30875;BME280;17581;43.222;27.924;2023-08-31T10:08:44;100089.00;;;33.79;35.73
30875;BME280;17581;43.222;27.924;2023-08-31T10:11:10;100067.84;;;33.73;34.84
30875;BME280;17581;43.222;27.924;2023-08-31T10:13:40;100099.13;;;33.99;34.11
30875;BME280;17581;43.222;27.924;2023-08-31T10:16:06;100083.91;;;34.20;34.15
30875;BME280;17581;43.222;27.924;2023-08-31T10:18:34;100083.81;;;34.30;34.45
30875;BME280;17581;43.222;27.924;2023-08-31T10:21:01;100084.19;;;34.47;34.25
30875;BME280;17581;43.222;27.924;2023-08-31T10:23:28;100085.66;;;34.68;33.61
30875;BME280;17581;43.222;27.924;2023-08-31T10:28:20;100078.94;;;34.93;32.48
30875;BME280;17581;43.222;27.924;2023-08-31T10:36:20;100102.75;;;35.14;30.89
30875;BME280;17581;43.222;27.924;2023-08-31T10:41:23;100087.13;;;35.32;31.03
30875;BME280;17581;43.222;27.924;2023-08-31T10:43:54;100093.72;;;35.60;30.89
30875;BME280;17581;43.222;27.924;2023-08-31T10:46:36;100097.09;;;35.94;31.30
30875;BME280;17581;43.222;27.924;2023-08-31T10:51:36;100084.13;;;35.66;32.01
30875;BME280;17581;43.222;27.924;2023-08-31T10:54:06;100109.25;;;35.71;34.78
30875;BME280;17581;43.222;27.924;2023-08-31T10:56:32;100096.53;;;35.60;32.65
30875;BME280;17581;43.222;27.924;2023-08-31T10:58:59;100086.50;;;35.53;41.49
30875;BME280;17581;43.222;27.924;2023-08-31T11:04:22;100103.41;;;34.82;47.22
30875;BME280;17581;43.222;27.924;2023-08-31T11:06:48;100103.25;;;34.11;49.78
30875;BME280;17581;43.222;27.924;2023-08-31T11:09:21;100094.56;;;33.79;50.82
30875;BME280;17581;43.222;27.924;2023-08-31T11:11:47;100084.22;;;33.79;50.21
30875;BME280;17581;43.222;27.924;2023-08-31T11:14:14;100105.47;;;33.75;50.64
30875;BME280;17581;43.222;27.924;2023-08-31T11:16:39;100093.78;;;33.19;53.09
30875;BME280;17581;43.222;27.924;2023-08-31T11:19:05;100106.31;;;33.22;53.72
30875;BME280;17581;43.222;27.924;2023-08-31T11:21:31;100097.75;;;33.08;53.54
30875;BME280;17581;43.222;27.924;2023-08-31T11:23:59;100108.63;;;32.95;52.97
30875;BME280;17581;43.222;27.924;2023-08-31T11:26:31;100077.81;;;32.66;54.94
30875;BME280;17581;43.222;27.924;2023-08-31T11:28:57;100084.41;;;32.85;55.05
30875;BME280;17581;43.222;27.924;2023-08-31T11:31:25;100088.25;;;33.04;53.78
30875;BME280;17581;43.222;27.924;2023-08-31T11:33:51;100101.75;;;32.72;53.78
30875;BME280;17581;43.222;27.924;2023-08-31T11:36:17;100098.91;;;32.87;54.49
30875;BME280;17581;43.222;27.924;2023-08-31T11:38:48;100111.78;;;32.68;53.92
30875;BME280;17581;43.222;27.924;2023-08-31T11:41:14;100112.94;;;32.57;55.19
30875;BME280;17581;43.222;27.924;2023-08-31T11:43:39;100117.91;;;32.55;55.76
30875;BME280;17581;43.222;27.924;2023-08-31T11:46:05;100123.50;;;32.50;55.56
30875;BME280;17581;43.222;27.924;2023-08-31T11:48:31;100109.53;;;32.55;56.61
30875;BME280;17581;43.222;27.924;2023-08-31T11:50:58;100107.63;;;32.30;57.71
30875;BME280;17581;43.222;27.924;2023-08-31T11:53:24;100117.69;;;32.26;57.97
30875;BME280;17581;43.222;27.924;2023-08-31T11:55:53;100125.75;;;32.22;58.30
30875;BME280;17581;43.222;27.924;2023-08-31T11:58:19;100120.16;;;32.32;55.78
30875;BME280;17581;43.222;27.924;2023-08-31T12:00:45;100121.81;;;32.39;55.01
30875;BME280;17581;43.222;27.924;2023-08-31T12:03:12;100122.91;;;32.48;53.62
30875;BME280;17581;43.222;27.924;2023-08-31T12:05:48;100114.59;;;32.32;52.09
30875;BME280;17581;43.222;27.924;2023-08-31T12:08:14;100129.38;;;32.28;53.28
30875;BME280;17581;43.222;27.924;2023-08-31T12:10:41;100121.28;;;32.31;53.77
30875;BME280;17581;43.222;27.924;2023-08-31T12:13:12;100119.34;;;32.37;55.51
30875;BME280;17581;43.222;27.924;2023-08-31T12:15:38;100119.06;;;32.33;55.92
30875;BME280;17581;43.222;27.924;2023-08-31T12:18:12;100100.69;;;32.27;54.87
30875;BME280;17581;43.222;27.924;2023-08-31T12:20:49;100121.56;;;32.30;56.16
30875;BME280;17581;43.222;27.924;2023-08-31T12:23:16;100117.94;;;32.14;54.56
30875;BME280;17581;43.222;27.924;2023-08-31T12:25:49;100109.06;;;32.07;55.84
30875;BME280;17581;43.222;27.924;2023-08-31T12:28:16;100118.50;;;32.06;57.85
30875;BME280;17581;43.222;27.924;2023-08-31T12:30:42;100116.25;;;31.93;59.26
30875;BME280;17581;43.222;27.924;2023-08-31T12:33:11;100117.06;;;31.99;59.76
30875;BME280;17581;43.222;27.924;2023-08-31T12:35:36;100111.81;;;31.92;60.29
30875;BME280;17581;43.222;27.924;2023-08-31T12:38:02;100117.06;;;31.99;60.04
30875;BME280;17581;43.222;27.924;2023-08-31T12:40:29;100099.00;;;31.86;60.37
30875;BME280;17581;43.222;27.924;2023-08-31T12:42:54;100108.16;;;31.87;59.25
30875;BME280;17581;43.222;27.924;2023-08-31T12:45:20;100120.69;;;31.84;59.37
30875;BME280;17581;43.222;27.924;2023-08-31T12:47:45;100088.13;;;31.59;58.87
30875;BME280;17581;43.222;27.924;2023-08-31T12:50:11;100112.88;;;31.56;60.46
30875;BME280;17581;43.222;27.924;2023-08-31T12:52:36;100113.06;;;31.39;61.72
30875;BME280;17581;43.222;27.924;2023-08-31T12:55:12;100108.06;;;31.36;62.44
30875;BME280;17581;43.222;27.924;2023-08-31T12:57:38;100112.19;;;31.28;62.97
30875;BME280;17581;43.222;27.924;2023-08-31T13:00:03;100111.22;;;30.98;63.58
30875;BME280;17581;43.222;27.924;2023-08-31T13:02:34;100129.91;;;31.07;64.06
30875;BME280;17581;43.222;27.924;2023-08-31T13:04:59;100137.69;;;31.10;64.49
30875;BME280;17581;43.222;27.924;2023-08-31T13:07:25;100112.38;;;30.97;64.49
30875;BME280;17581;43.222;27.924;2023-08-31T13:09:50;100125.41;;;30.96;64.97
30875;BME280;17581;43.222;27.924;2023-08-31T13:12:16;100133.13;;;30.89;64.88
30875;BME280;17581;43.222;27.924;2023-08-31T13:14:43;100132.16;;;30.68;65.66